Time;durP1;ratioP1;P1;durP2;ratioP2;P2;SDS_P1;SDS_P2;PMS_P1;PMS_P2;Temp;Humidity;BMP_temperature;BMP_pressure;BME280_temperature;BME280_humidity;BME280_pressure;Samples;Min_cycle;Max_cycle;Signal;HPM_P1;HPM_P2
2020/12/22 00:00:45;;;;;;;20.97;12.50;;;;;;;-0.89;88.82;100455.67;1773024;79;21242;-62
2020/12/22 00:03:14;;;;;;;17.15;12.28;;;;;;;-0.87;88.86;100457.95;1795306;79;21152;-63
2020/12/22 00:05:48;;;;;;;17.77;13.00;;;;;;;-0.85;88.91;100458.94;1766973;79;20955;-63
2020/12/22 00:08:18;;;;;;;20.75;12.37;;;;;;;-0.83;88.93;100453.45;1769892;79;21164;-62
2020/12/22 00:10:46;;;;;;;19.95;12.58;;;;;;;-0.81;88.92;100452.74;1766951;79;21548;-62
2020/12/22 00:13:15;;;;;;;18.02;12.78;;;;;;;-0.84;88.89;100459.03;1768619;79;21147;-63
2020/12/22 00:15:46;;;;;;;21.35;13.45;;;;;;;-0.89;88.85;100451.79;1769792;79;20955;-63
2020/12/22 00:18:16;;;;;;;18.67;13.53;;;;;;;-0.93;88.84;100457.19;1775094;79;20931;-63
2020/12/22 00:20:45;;;;;;;18.30;12.68;;;;;;;-0.97;88.85;100449.61;1796866;79;21486;-63
2020/12/22 00:23:13;;;;;;;18.12;12.80;;;;;;;-1.01;88.87;100459.69;1776837;79;21377;-63
2020/12/22 00:25:48;;;;;;;16.60;12.45;;;;;;;-1.07;88.86;100456.33;1787232;79;20939;-64
2020/12/22 00:28:17;;;;;;;22.22;14.03;;;;;;;-1.08;88.89;100461.41;1797281;79;20942;-62
2020/12/22 00:30:49;;;;;;;18.15;12.35;;;;;;;-1.12;88.92;100459.44;1803512;79;20926;-63
2020/12/22 00:33:18;;;;;;;19.73;13.23;;;;;;;-1.20;88.95;100466.74;1803571;79;21001;-63
2020/12/22 00:35:48;;;;;;;16.65;12.00;;;;;;;-1.25;88.97;100460.79;1773977;80;22219;-62
2020/12/22 00:38:17;;;;;;;17.30;11.68;;;;;;;-1.26;89.01;100461.19;1775943;79;20942;-62
2020/12/22 00:40:46;;;;;;;16.93;11.55;;;;;;;-1.30;89.02;100460.11;1797999;79;20951;-62
2020/12/22 00:43:15;;;;;;;17.62;12.13;;;;;;;-1.32;89.04;100465.59;1798553;79;21074;-62
2020/12/22 00:45:44;;;;;;;18.32;11.85;;;;;;;-1.34;89.09;100458.13;1784805;79;20932;-62
2020/12/22 00:48:14;;;;;;;16.05;11.45;;;;;;;-1.35;89.13;100454.16;1783368;79;21249;-63
2020/12/22 00:50:46;;;;;;;17.55;11.75;;;;;;;-1.33;89.17;100461.21;1774038;81;20950;-62
2020/12/22 00:53:14;;;;;;;16.80;11.28;;;;;;;-1.35;89.17;100455.05;1774025;80;20898;-63
2020/12/22 00:55:44;;;;;;;18.60;11.75;;;;;;;-1.36;89.15;100460.13;1796464;79;21509;-63
2020/12/22 00:58:13;;;;;;;18.05;12.25;;;;;;;-1.40;89.16;100452.98;1803827;79;21057;-63
2020/12/22 01:00:43;;;;;;;17.67;11.80;;;;;;;-1.39;89.18;100453.47;1757667;79;21419;-64
2020/12/22 01:03:12;;;;;;;15.50;10.98;;;;;;;-1.43;89.22;100453.65;1799638;79;20946;-62
2020/12/22 01:05:41;;;;;;;14.50;11.18;;;;;;;-1.44;89.28;100458.33;1774711;79;20930;-62
2020/12/22 01:08:09;;;;;;;15.10;11.05;;;;;;;-1.45;89.29;100460.82;1774086;79;20926;-63
2020/12/22 01:10:38;;;;;;;14.30;10.68;;;;;;;-1.48;89.31;100459.34;1774040;81;20970;-63
2020/12/22 01:13:07;;;;;;;16.15;11.40;;;;;;;-1.55;89.31;100463.64;1787598;79;21301;-63
2020/12/22 01:15:36;;;;;;;17.55;11.65;;;;;;;-1.58;89.35;100464.34;1776033;79;20970;-62
2020/12/22 01:18:05;;;;;;;18.87;11.83;;;;;;;-1.61;89.39;100460.27;1765881;80;21206;-62
2020/12/22 01:20:34;;;;;;;19.40;11.45;;;;;;;-1.64;89.47;100463.95;1740429;81;20950;-62
2020/12/22 01:23:02;;;;;;;18.48;11.90;;;;;;;-1.67;89.50;100463.77;1766670;81;20954;-62
2020/12/22 01:25:31;;;;;;;14.87;11.25;;;;;;;-1.67;89.56;100465.95;1770997;80;21252;-62
2020/12/22 01:28:01;;;;;;;16.42;10.90;;;;;;;-1.66;89.60;100465.16;1738282;81;20979;-63
2020/12/22 01:30:29;;;;;;;15.95;11.22;;;;;;;-1.66;89.67;100458.69;1746917;81;21073;-63
2020/12/22 01:32:58;;;;;;;17.60;11.33;;;;;;;-1.67;89.70;100456.90;1766152;80;20982;-63
2020/12/22 01:35:27;;;;;;;13.53;10.20;;;;;;;-1.69;89.73;100459.79;1767931;80;21080;-63
2020/12/22 01:37:55;;;;;;;15.90;10.38;;;;;;;-1.69;89.77;100452.42;1750651;80;21248;-63
2020/12/22 01:40:25;;;;;;;15.75;10.68;;;;;;;-1.67;89.84;100453.41;1758511;80;20951;-63
2020/12/22 01:42:54;;;;;;;17.12;11.05;;;;;;;-1.67;89.86;100448.24;1731833;81;20954;-63
2020/12/22 01:45:24;;;;;;;14.43;10.80;;;;;;;-1.67;89.88;100449.53;1758363;81;20947;-63
2020/12/22 01:47:52;;;;;;;15.15;10.18;;;;;;;-1.65;89.92;100450.53;1743961;81;20947;-63
2020/12/22 01:50:21;;;;;;;15.43;10.48;;;;;;;-1.63;89.96;100451.52;1740679;81;21350;-63
2020/12/22 01:52:49;;;;;;;14.60;9.18;;;;;;;-1.66;89.92;100448.73;1740547;81;20959;-64
2020/12/22 01:55:18;;;;;;;14.95;10.65;;;;;;;-1.69;89.93;100453.32;1720948;81;20900;-63
2020/12/22 01:57:46;;;;;;;13.38;9.53;;;;;;;-1.69;89.96;100448.55;1752548;81;20940;-63
2020/12/22 02:00:14;;;;;;;13.90;9.68;;;;;;;-1.75;89.95;100445.58;1739262;81;20967;-63
2020/12/22 02:02:45;;;;;;;14.68;9.88;;;;;;;-1.78;89.97;100451.45;1740493;82;22157;-63
2020/12/22 02:05:14;;;;;;;13.50;9.23;;;;;;;-1.83;90.01;100450.27;1740464;81;21509;-63
2020/12/22 02:07:44;;;;;;;12.85;9.25;;;;;;;-1.86;90.07;100449.17;1696499;84;21088;-63
2020/12/22 02:10:13;;;;;;;13.70;9.30;;;;;;;-1.84;90.15;100445.89;1744127;81;21536;-63
2020/12/22 02:12:42;;;;;;;13.62;9.33;;;;;;;-1.83;90.18;100444.20;1770764;81;21109;-59
2020/12/22 02:15:11;;;;;;;12.25;9.10;;;;;;;-1.84;90.20;100443.70;1742468;80;22133;-63
2020/12/22 02:17:40;;;;;;;12.58;9.63;;;;;;;-1.87;90.19;100450.87;1745461;80;21065;-63
2020/12/22 02:20:09;;;;;;;10.88;8.40;;;;;;;-1.87;90.21;100452.56;1802118;79;20931;-63
2020/12/22 02:22:38;;;;;;;12.00;8.65;;;;;;;-1.85;90.23;100453.55;1777281;79;21061;-63
2020/12/22 02:25:17;;;;;;;9.83;7.78;;;;;;;-1.83;90.25;100447.68;1792583;78;21492;-63
2020/12/22 02:27:46;;;;;;;12.00;8.33;;;;;;;-1.82;90.30;100443.00;1773982;81;22180;-63
2020/12/22 02:30:15;;;;;;;12.07;8.85;;;;;;;-1.80;90.30;100441.80;1802273;79;21545;-63
2020/12/22 02:32:44;;;;;;;11.03;7.87;;;;;;;-1.80;90.26;100438.82;1814231;78;20978;-63
2020/12/22 02:35:13;;;;;;;11.85;8.28;;;;;;;-1.80;90.25;100443.99;1776536;79;21049;-63
2020/12/22 02:37:42;;;;;;;10.35;7.67;;;;;;;-1.80;90.23;100438.82;1773940;81;21064;-63
2020/12/22 02:40:10;;;;;;;11.57;8.65;;;;;;;-1.77;90.23;100435.53;1714868;82;21210;-63
2020/12/22 02:42:39;;;;;;;11.85;7.85;;;;;;;-1.76;90.21;100432.14;1735708;82;21109;-63
2020/12/22 02:45:08;;;;;;;12.85;8.53;;;;;;;-1.77;90.22;100430.36;1733122;80;20967;-62
2020/12/22 02:47:37;;;;;;;11.43;8.00;;;;;;;-1.77;90.21;100432.94;1726681;82;20970;-63
2020/12/22 02:50:05;;;;;;;11.53;8.48;;;;;;;-1.80;90.20;100436.63;1787463;79;21509;-63
2020/12/22 02:52:33;;;;;;;10.55;7.30;;;;;;;-1.83;90.20;100434.75;1786327;79;21457;-62
2020/12/22 02:55:02;;;;;;;10.78;7.22;;;;;;;-1.88;90.20;100435.25;1773859;80;20939;-62
2020/12/22 02:57:32;;;;;;;10.08;7.15;;;;;;;-1.95;90.21;100432.25;1774108;79;21061;-62
2020/12/22 03:00:01;;;;;;;8.53;6.45;;;;;;;-2.01;90.21;100433.15;1774496;79;20871;-63
2020/12/22 03:02:30;;;;;;;7.97;6.50;;;;;;;-2.02;90.20;100433.05;1783952;79;21081;-63
2020/12/22 03:04:58;;;;;;;10.38;7.45;;;;;;;-2.03;90.21;100432.16;1787155;79;21202;-63
2020/12/22 03:07:27;;;;;;;9.20;6.90;;;;;;;-2.04;90.21;100426.89;1775252;79;20974;-63
2020/12/22 03:09:55;;;;;;;9.10;7.08;;;;;;;-2.03;90.21;100432.55;1786324;79;20934;-62
2020/12/22 03:12:24;;;;;;;10.50;7.33;;;;;;;-2.06;90.19;100428.09;1786939;79;21072;-62
2020/12/22 03:14:52;;;;;;;10.35;7.45;;;;;;;-2.08;90.19;100427.09;1780876;79;21485;-62
2020/12/22 03:17:21;;;;;;;11.50;6.78;;;;;;;-2.09;90.19;100430.48;1773940;80;21545;-62
2020/12/22 03:19:51;;;;;;;9.98;6.92;;;;;;;-2.09;90.20;100429.18;1801679;78;21120;-62
2020/12/22 03:22:20;;;;;;;9.95;7.10;;;;;;;-2.08;90.20;100427.49;1813660;79;21104;-63
2020/12/22 03:24:48;;;;;;;11.08;6.62;;;;;;;-2.06;90.20;100429.38;1785703;78;21029;-62
2020/12/22 03:27:17;;;;;;;9.85;6.62;;;;;;;-2.06;90.17;100429.77;1785039;79;20961;-62
2020/12/22 03:29:46;;;;;;;10.08;7.25;;;;;;;-2.08;90.14;100436.54;1784773;79;22053;-62
2020/12/22 03:32:15;;;;;;;9.13;6.67;;;;;;;-2.12;90.12;100426.40;1784578;80;21072;-62
2020/12/22 03:34:43;;;;;;;9.20;6.87;;;;;;;-2.10;90.13;100436.84;1786786;79;20895;-62
2020/12/22 03:37:19;;;;;;;10.23;6.97;;;;;;;-2.11;90.11;100434.66;1784819;79;20918;-62
2020/12/22 03:39:43;;;;;;;10.05;6.78;;;;;;;-2.10;90.10;100433.86;1792438;79;21471;-62
2020/12/22 03:42:12;;;;;;;9.38;6.70;;;;;;;-2.07;90.13;100432.76;1784949;79;21554;-62
2020/12/22 03:44:41;;;;;;;8.35;6.35;;;;;;;-2.09;90.05;100436.94;1787129;79;20914;-62
2020/12/22 03:47:10;;;;;;;8.80;6.75;;;;;;;-2.12;90.01;100433.27;1789332;79;21033;-63
2020/12/22 03:49:39;;;;;;;9.83;6.65;;;;;;;-2.15;90.01;100433.95;1797211;79;21481;-63
2020/12/22 03:52:08;;;;;;;9.48;6.78;;;;;;;-2.15;90.05;100436.94;1791461;79;20906;-63
2020/12/22 03:54:37;;;;;;;9.65;6.37;;;;;;;-2.16;90.08;100430.88;1784737;80;21206;-63
2020/12/22 03:57:06;;;;;;;9.08;6.62;;;;;;;-2.15;90.10;100430.48;1784760;80;20929;-62
2020/12/22 03:59:35;;;;;;;8.80;6.10;;;;;;;-2.18;90.06;100426.01;1784837;80;20942;-60
2020/12/22 04:02:03;;;;;;;7.45;5.47;;;;;;;-2.20;90.03;100428.89;1786968;79;21494;-61
2020/12/22 04:04:33;;;;;;;8.45;5.95;;;;;;;-2.21;90.00;100427.10;1784846;80;20867;-63
2020/12/22 04:07:01;;;;;;;7.30;6.00;;;;;;;-2.21;89.98;100427.10;1784913;80;22304;-62
2020/12/22 04:09:30;;;;;;;7.40;5.65;;;;;;;-2.24;89.92;100424.32;1784784;80;21488;-62
2020/12/22 04:11:58;;;;;;;8.45;5.92;;;;;;;-2.26;89.91;100428.50;1810115;79;20934;-62
2020/12/22 04:14:27;;;;;;;8.28;6.10;;;;;;;-2.28;89.91;100430.98;1816942;79;21528;-62
2020/12/22 04:16:55;;;;;;;8.83;5.58;;;;;;;-2.28;89.95;100430.98;1816874;79;21100;-62
2020/12/22 04:19:23;;;;;;;8.73;5.95;;;;;;;-2.25;89.95;100431.58;1810168;79;21437;-62
2020/12/22 04:21:52;;;;;;;8.28;6.30;;;;;;;-2.27;89.94;100425.02;1805717;79;20939;-62
2020/12/22 04:24:22;;;;;;;8.23;5.55;;;;;;;-2.26;89.95;100431.98;1803053;79;21486;-61
2020/12/22 04:26:50;;;;;;;7.25;5.47;;;;;;;-2.25;89.96;100427.70;1804866;79;20919;-63
2020/12/22 04:29:19;;;;;;;7.95;5.97;;;;;;;-2.24;89.98;100427.80;1778056;79;21048;-61
2020/12/22 04:31:48;;;;;;;8.35;6.08;;;;;;;-2.22;90.00;100430.48;1803260;79;22060;-60
2020/12/22 04:34:16;;;;;;;8.10;6.00;;;;;;;-2.21;90.04;100427.10;1809792;79;20954;-61
2020/12/22 04:36:49;;;;;;;7.33;5.92;;;;;;;-2.17;90.04;100425.61;1775607;80;21481;-61
2020/12/22 04:39:17;;;;;;;8.80;6.00;;;;;;;-2.18;90.01;100424.72;1731272;82;21061;-62
2020/12/22 04:41:48;;;;;;;7.30;5.67;;;;;;;-2.19;89.95;100423.33;1727813;81;20962;-60
2020/12/22 04:44:18;;;;;;;8.73;6.28;;;;;;;-2.21;89.92;100429.69;1739502;81;22084;-61
2020/12/22 04:46:50;;;;;;;8.23;6.00;;;;;;;-2.18;89.94;100426.01;1739227;82;20966;-62
2020/12/22 04:49:21;;;;;;;8.25;6.20;;;;;;;-2.19;89.95;100424.22;1708556;84;21518;-61
2020/12/22 04:51:51;;;;;;;9.53;6.50;;;;;;;-2.16;89.96;100423.13;1739371;82;20972;-61
2020/12/22 04:54:21;;;;;;;8.55;5.85;;;;;;;-2.16;89.96;100423.52;1733309;82;20935;-61
2020/12/22 04:56:50;;;;;;;9.35;6.22;;;;;;;-2.18;89.92;100424.72;1739311;81;21410;-61
2020/12/22 04:59:18;;;;;;;8.13;6.08;;;;;;;-2.19;89.90;100419.05;1721684;82;21128;-61
2020/12/22 05:01:47;;;;;;;8.30;6.03;;;;;;;-2.19;89.86;100416.86;1708356;83;20935;-63
2020/12/22 05:04:15;;;;;;;8.75;5.83;;;;;;;-2.16;89.89;100418.35;1739464;82;21501;-62
2020/12/22 05:06:44;;;;;;;8.95;6.37;;;;;;;-2.15;89.89;100418.45;1708390;84;20951;-62
2020/12/22 05:09:12;;;;;;;9.78;6.12;;;;;;;-2.17;89.82;100416.56;1739480;82;22231;-62
2020/12/22 05:11:40;;;;;;;8.00;6.28;;;;;;;-2.19;89.78;100421.63;1739319;82;20955;-62
2020/12/22 05:14:09;;;;;;;10.50;6.25;;;;;;;-2.19;89.79;100419.05;1739518;82;21477;-62
2020/12/22 05:16:37;;;;;;;7.95;5.97;;;;;;;-2.20;89.78;100422.83;1739484;81;20955;-62
2020/12/22 05:19:05;;;;;;;6.80;5.25;;;;;;;-2.19;89.79;100419.45;1741845;82;20951;-62
2020/12/22 05:21:37;;;;;;;7.97;5.58;;;;;;;-2.11;89.82;100418.25;1718679;83;21387;-62
2020/12/22 05:24:05;;;;;;;6.97;5.20;;;;;;;-2.07;89.78;100419.83;1785048;80;20957;-62
2020/12/22 05:26:33;;;;;;;6.33;5.00;;;;;;;-2.08;89.72;100413.27;1749912;81;21786;-62
2020/12/22 05:29:13;;;;;;;7.03;5.35;;;;;;;-2.06;89.64;100409.09;1784766;79;21115;-62
2020/12/22 05:31:49;;;;;;;7.10;5.53;;;;;;;-2.07;89.52;100408.59;1749983;82;20931;-63
2020/12/22 05:34:19;;;;;;;6.90;5.28;;;;;;;-2.09;89.39;100407.20;1749868;82;21492;-62
2020/12/22 05:36:47;;;;;;;7.90;5.87;;;;;;;-2.13;89.24;100407.81;1784668;80;21084;-62
2020/12/22 05:39:18;;;;;;;7.78;5.50;;;;;;;-2.14;89.21;100402.14;1749938;81;20958;-62
2020/12/22 05:41:47;;;;;;;6.33;5.08;;;;;;;-2.17;89.14;100409.70;1753129;80;20945;-62
2020/12/22 05:44:15;;;;;;;7.17;5.12;;;;;;;-2.18;89.06;100413.48;1749921;81;20934;-62
2020/12/22 05:46:44;;;;;;;8.73;5.10;;;;;;;-2.19;89.01;100415.17;1802858;79;21093;-62
2020/12/22 05:49:14;;;;;;;7.37;4.90;;;;;;;-2.17;88.99;100407.52;1690150;83;20986;-63
2020/12/22 05:51:45;;;;;;;5.58;4.35;;;;;;;-2.17;88.93;100408.41;1784774;80;20952;-62
2020/12/22 05:54:16;;;;;;;5.42;4.55;;;;;;;-2.15;88.84;100413.28;1720090;82;20949;-62
2020/12/22 05:56:45;;;;;;;5.62;4.35;;;;;;;-2.13;88.78;100411.69;1784698;80;20894;-62
2020/12/22 05:59:20;;;;;;;4.90;3.98;;;;;;;-2.12;88.72;100412.58;1720156;83;22360;-62
2020/12/22 06:01:50;;;;;;;5.75;3.40;;;;;;;-2.09;88.62;100411.08;1784626;80;20938;-62
2020/12/22 06:04:22;;;;;;;3.70;3.20;;;;;;;-2.06;88.49;100412.57;1720082;83;20914;-62
2020/12/22 06:06:52;;;;;;;4.60;3.40;;;;;;;-2.03;88.30;100407.99;1784560;80;21076;-62
2020/12/22 06:09:22;;;;;;;4.80;3.95;;;;;;;-2.01;88.16;100405.11;1720093;83;20950;-62
2020/12/22 06:11:52;;;;;;;5.12;3.65;;;;;;;-2.02;88.00;100407.20;1784687;80;21210;-62
2020/12/22 06:14:24;;;;;;;4.33;3.42;;;;;;;-2.04;87.88;100402.33;1690385;83;20957;-62
2020/12/22 06:16:52;;;;;;;4.65;3.25;;;;;;;-2.07;87.67;100400.44;1795705;79;20919;-62
2020/12/22 06:19:21;;;;;;;4.67;3.60;;;;;;;-2.10;87.54;100411.88;1808951;79;20883;-62
2020/12/22 06:21:56;;;;;;;4.08;3.40;;;;;;;-2.10;87.49;100404.52;1738247;82;21477;-62
2020/12/22 06:24:24;;;;;;;4.85;3.30;;;;;;;-2.06;87.41;100405.22;1769956;81;22333;-62
2020/12/22 06:27:04;;;;;;;4.78;3.70;;;;;;;-2.03;87.33;100403.72;1739264;82;20980;-62
2020/12/22 06:29:38;;;;;;;4.42;3.50;;;;;;;-2.00;87.24;100405.60;1739306;82;20941;-62
2020/12/22 06:32:26;;;;;;;4.42;3.77;;;;;;;-1.95;87.19;100405.09;1767217;81;21548;-62
2020/12/22 06:34:56;;;;;;;4.92;3.80;;;;;;;-1.95;87.04;100398.62;1739393;82;21510;-62
2020/12/22 06:37:42;;;;;;;6.17;3.90;;;;;;;-1.92;86.97;100397.53;1769850;81;21367;-62
2020/12/22 06:40:11;;;;;;;4.53;3.70;;;;;;;-1.90;86.86;100394.64;1739227;82;20999;-62
2020/12/22 06:42:47;;;;;;;4.08;3.40;;;;;;;-1.87;86.70;100391.78;1769838;80;20946;-62
2020/12/22 06:45:28;;;;;;;4.72;3.75;;;;;;;-1.89;86.59;100395.57;1739030;82;21094;-62
2020/12/22 06:47:59;;;;;;;4.92;3.90;;;;;;;-1.85;86.57;100403.13;1708181;84;20987;-62
2020/12/22 06:50:44;;;;;;;4.42;3.72;;;;;;;-1.84;86.49;100396.75;1739327;82;21388;-62
2020/12/22 06:53:35;;;;;;;5.70;4.00;;;;;;;-1.82;86.35;100394.27;1709824;84;20972;-62
2020/12/22 06:56:03;;;;;;;4.78;3.75;;;;;;;-1.83;86.15;100393.36;1679512;85;21622;-62
2020/12/22 06:58:37;;;;;;;4.83;3.80;;;;;;;-1.84;85.98;100398.44;1679297;85;21525;-62
2020/12/22 07:01:29;;;;;;;3.70;3.17;;;;;;;-1.86;85.87;100387.11;1679342;85;20994;-62
2020/12/22 07:04:21;;;;;;;5.30;3.77;;;;;;;-1.86;85.76;100397.05;1679587;85;22272;-62
2020/12/22 07:06:58;;;;;;;3.62;3.20;;;;;;;-1.87;85.60;100397.85;1679413;85;21588;-62
2020/12/22 07:09:32;;;;;;;4.40;3.50;;;;;;;-1.90;85.45;100398.52;1679416;85;20986;-62
2020/12/22 07:12:15;;;;;;;4.92;3.90;;;;;;;-1.90;85.34;100395.04;1679304;85;21101;-62
2020/12/22 07:14:49;;;;;;;4.53;3.35;;;;;;;-1.93;85.27;100395.73;1679383;85;21160;-62
2020/12/22 07:17:21;;;;;;;3.90;3.10;;;;;;;-1.92;85.13;100394.05;1646624;85;21236;-62
2020/12/22 07:19:52;;;;;;;5.50;3.37;;;;;;;-1.91;84.98;100391.95;1656482;85;21128;-62
2020/12/22 07:22:25;;;;;;;3.62;3.20;;;;;;;-1.95;84.83;100392.16;1648555;87;21117;-63
2020/12/22 07:24:53;;;;;;;3.42;3.08;;;;;;;-1.98;84.62;100390.68;1679359;85;20974;-62
2020/12/22 07:27:23;;;;;;;4.55;3.72;;;;;;;-1.98;84.48;100383.33;1679423;85;21001;-62
2020/12/22 07:29:56;;;;;;;5.95;4.10;;;;;;;-1.98;84.40;100383.33;1698567;82;21344;-62
2020/12/22 07:32:25;;;;;;;5.62;4.17;;;;;;;-1.99;84.23;100382.83;1702696;82;20967;-62
2020/12/22 07:34:54;;;;;;;6.05;2.90;;;;;;;-2.07;84.04;100390.50;1733432;81;20968;-61
2020/12/22 07:37:22;;;;;;;4.70;3.40;;;;;;;-2.18;83.86;100388.53;1741627;81;20952;-61
2020/12/22 07:39:50;;;;;;;4.72;3.77;;;;;;;-2.26;83.80;100388.44;1787358;79;21065;-62
2020/12/22 07:42:19;;;;;;;5.03;3.62;;;;;;;-2.32;83.79;100387.65;1773662;81;21406;-62
2020/12/22 07:44:48;;;;;;;4.70;3.67;;;;;;;-2.37;83.79;100380.36;1773862;81;21004;-61
2020/12/22 07:47:16;;;;;;;9.08;3.70;;;;;;;-2.39;83.84;100384.53;1797109;79;20939;-61
2020/12/22 07:49:45;;;;;;;4.75;3.37;;;;;;;-2.46;83.75;100380.66;1793528;79;20971;-62
2020/12/22 07:52:16;;;;;;;4.35;3.45;;;;;;;-2.47;83.73;100375.40;1792433;80;21086;-61
2020/12/22 07:54:58;;;;;;;3.40;3.08;;;;;;;-2.44;83.79;100381.66;1792525;79;22088;-62
2020/12/22 07:57:26;;;;;;;4.60;3.77;;;;;;;-2.38;83.79;100381.16;1792389;79;21094;-62
2020/12/22 08:00:03;;;;;;;3.80;2.80;;;;;;;-2.36;83.75;100379.20;1792454;79;20974;-61
2020/12/22 08:02:32;;;;;;;4.92;3.27;;;;;;;-2.38;83.58;100384.63;1792423;79;20919;-62
2020/12/22 08:05:12;;;;;;;4.92;3.42;;;;;;;-2.40;83.49;100382.75;1792416;79;20912;-62
2020/12/22 08:07:44;;;;;;;4.47;3.00;;;;;;;-2.36;83.50;100379.59;1792457;79;21354;-61
2020/12/22 08:10:12;;;;;;;5.60;3.67;;;;;;;-2.32;83.49;100379.89;1792713;79;21062;-61
2020/12/22 08:12:42;;;;;;;3.55;3.12;;;;;;;-2.30;83.40;100386.45;1792440;80;20932;-61
2020/12/22 08:15:12;;;;;;;3.50;3.20;;;;;;;-2.33;83.19;100388.84;1792257;79;21060;-61
2020/12/22 08:17:41;;;;;;;4.53;3.37;;;;;;;-2.35;83.15;100385.27;1798297;79;21063;-62
2020/12/22 08:20:09;;;;;;;4.37;3.60;;;;;;;-2.34;83.14;100387.95;1805535;79;21197;-61
2020/12/22 08:22:37;;;;;;;4.47;3.55;;;;;;;-2.36;83.04;100384.77;1739197;81;20923;-61
2020/12/22 08:25:05;;;;;;;5.47;4.30;;;;;;;-2.43;82.98;100383.84;1769956;81;20962;-62
2020/12/22 08:27:33;;;;;;;4.80;3.90;;;;;;;-2.47;82.97;100385.34;1739403;82;20948;-62
2020/12/22 08:30:02;;;;;;;6.33;4.28;;;;;;;-2.52;82.92;100378.98;1740315;81;20904;-62
2020/12/22 08:32:32;;;;;;;5.03;3.90;;;;;;;-2.50;82.94;100377.78;1739402;82;22342;-62
2020/12/22 08:35:01;;;;;;;5.92;4.70;;;;;;;-2.43;82.89;100375.70;1739341;82;21546;-62
2020/12/22 08:37:29;;;;;;;4.45;4.05;;;;;;;-2.36;82.77;100374.44;1739418;82;20960;-62
2020/12/22 08:39:57;;;;;;;4.90;4.30;;;;;;;-2.31;82.61;100367.87;1739374;82;20917;-62
2020/12/22 08:42:26;;;;;;;5.87;4.72;;;;;;;-2.25;82.48;100370.84;1739443;82;20948;-61
2020/12/22 08:44:54;;;;;;;5.55;4.15;;;;;;;-2.18;82.32;100374.31;1739403;82;21466;-62
2020/12/22 08:47:22;;;;;;;5.55;4.50;;;;;;;-2.17;82.15;100372.22;1754030;81;21553;-62
2020/12/22 08:49:50;;;;;;;5.40;4.50;;;;;;;-2.28;82.09;100379.69;1769989;81;21593;-61
2020/12/22 08:52:19;;;;;;;5.50;4.58;;;;;;;-2.36;81.97;100375.33;1739358;82;21078;-61
2020/12/22 08:54:48;;;;;;;5.45;4.05;;;;;;;-2.37;81.87;100370.92;1769953;81;20966;-61
2020/12/22 08:57:18;;;;;;;6.47;4.45;;;;;;;-2.43;81.89;100369.23;1739346;82;22354;-61
2020/12/22 08:59:46;;;;;;;5.10;4.00;;;;;;;-2.47;81.92;100355.63;1769848;80;21532;-61
2020/12/22 09:02:30;;;;;;;4.80;3.67;;;;;;;-2.43;81.88;100347.67;1739350;82;20960;-61
2020/12/22 09:05:10;;;;;;;4.87;3.60;;;;;;;-2.38;81.73;100348.86;1769969;80;20895;-61
2020/12/22 09:07:39;;;;;;;3.98;3.50;;;;;;;-2.37;81.58;100342.50;1739499;82;21463;-62
2020/12/22 09:10:07;;;;;;;4.78;3.95;;;;;;;-2.36;81.49;100336.97;1769922;81;21197;-61
2020/12/22 09:12:36;;;;;;;4.87;3.92;;;;;;;-2.33;81.59;100334.58;1739315;82;20987;-62
2020/12/22 09:15:08;;;;;;;4.67;4.17;;;;;;;-2.27;81.59;100325.52;1769910;81;20962;-62
2020/12/22 09:17:36;;;;;;;6.20;4.67;;;;;;;-2.20;81.56;100324.20;1739324;82;20972;-61
2020/12/22 09:20:05;;;;;;;4.72;3.92;;;;;;;-2.14;81.40;100318.53;1747330;80;20942;-62
2020/12/22 09:22:34;;;;;;;5.05;3.65;;;;;;;-2.12;81.18;100315.24;1759969;81;22009;-63
2020/12/22 09:25:07;;;;;;;6.35;4.42;;;;;;;-2.10;81.09;100319.22;1758220;81;20959;-61
2020/12/22 09:27:39;;;;;;;4.47;3.92;;;;;;;-2.13;80.90;100316.04;1734974;82;20969;-62
2020/12/22 09:30:13;;;;;;;4.22;3.37;;;;;;;-2.15;80.77;100305.11;1758346;81;20938;-61
2020/12/22 09:32:43;;;;;;;8.70;3.90;;;;;;;-2.15;80.83;100306.41;1734925;82;20945;-61
2020/12/22 09:35:12;;;;;;;4.67;3.80;;;;;;;-2.12;80.87;100293.27;1758226;80;21374;-62
2020/12/22 09:37:40;;;;;;;3.77;3.17;;;;;;;-2.06;80.81;100290.17;1734845;82;21504;-62
2020/12/22 09:40:09;;;;;;;3.98;3.25;;;;;;;-2.06;80.54;100291.06;1758228;81;20942;-62
2020/12/22 09:42:38;;;;;;;4.08;3.10;;;;;;;-2.07;80.32;100296.14;1734952;82;20945;-62
2020/12/22 09:45:06;;;;;;;3.95;3.02;;;;;;;-2.08;80.18;100281.42;1758273;80;20934;-62
2020/12/22 09:47:35;;;;;;;5.60;4.12;;;;;;;-2.09;80.17;100277.95;1734934;81;21345;-61
2020/12/22 09:50:04;;;;;;;3.87;3.12;;;;;;;-2.07;80.29;100268.99;1758193;80;20974;-61
2020/12/22 09:52:35;;;;;;;3.60;2.80;;;;;;;-2.04;80.28;100275.25;1735098;82;21493;-62
2020/12/22 09:55:03;;;;;;;4.05;3.05;;;;;;;-2.00;80.22;100271.16;1758223;81;21089;-61
2020/12/22 09:57:34;;;;;;;6.22;2.67;;;;;;;-2.01;80.08;100270.26;1733030;82;21120;-61
2020/12/22 10:00:04;;;;;;;3.20;2.60;;;;;;;-1.99;79.96;100261.30;1761299;81;21377;-62
2020/12/22 10:02:33;;;;;;;2.37;2.17;;;;;;;-2.01;79.79;100263.80;1734858;82;20953;-61
2020/12/22 10:05:01;;;;;;;4.10;2.10;;;;;;;-2.02;79.89;100258.53;1758235;81;21533;-61
2020/12/22 10:07:32;;;;;;;3.25;2.50;;;;;;;-2.03;79.92;100259.33;1734829;82;21001;-61
2020/12/22 10:09:59;;;;;;;2.70;2.47;;;;;;;-2.04;79.98;100251.98;1758316;80;20971;-61
2020/12/22 10:12:27;;;;;;;2.42;2.20;;;;;;;-2.02;80.05;100238.74;1734890;82;21237;-61
2020/12/22 10:14:58;;;;;;;2.50;2.08;;;;;;;-2.03;80.02;100241.23;1703463;81;21076;-62
2020/12/22 10:17:26;;;;;;;2.37;2.05;;;;;;;-2.05;79.95;100233.78;1734902;82;20969;-61
2020/12/22 10:19:54;;;;;;;4.10;2.22;;;;;;;-2.05;80.03;100228.22;1758215;80;21497;-62
2020/12/22 10:22:24;;;;;;;2.98;2.30;;;;;;;-2.03;80.08;100224.03;1719109;82;20930;-61
2020/12/22 10:24:52;;;;;;;3.22;2.42;;;;;;;-2.01;80.25;100231.48;1752042;79;21204;-62
2020/12/22 10:27:20;;;;;;;2.45;2.22;;;;;;;-2.05;80.32;100230.80;1794521;79;20934;-62
2020/12/22 10:29:49;;;;;;;3.27;2.25;;;;;;;-2.06;80.52;100229.02;1796706;79;20935;-61
2020/12/22 10:32:17;;;;;;;10.43;2.60;;;;;;;-2.04;80.59;100227.81;1735102;82;20947;-62
2020/12/22 10:34:47;;;;;;;3.55;2.65;;;;;;;-2.02;80.64;100231.39;1803774;79;20922;-62
2020/12/22 10:37:15;;;;;;;2.77;2.45;;;;;;;-2.03;80.68;100232.19;1735190;82;22157;-62
2020/12/22 10:39:48;;;;;;;2.42;2.05;;;;;;;-2.04;80.64;100227.41;1735103;82;21098;-61
2020/12/22 10:42:13;;;;;;;2.47;2.25;;;;;;;-2.00;80.59;100225.91;1735154;82;20920;-62
2020/12/22 10:44:42;;;;;;;2.47;2.00;;;;;;;-1.95;80.53;100227.97;1752277;82;20962;-62
2020/12/22 10:47:11;;;;;;;4.08;2.72;;;;;;;-1.92;80.25;100224.67;1735173;82;20947;-62
2020/12/22 10:49:40;;;;;;;3.30;2.45;;;;;;;-1.93;80.10;100215.12;1752442;82;22114;-61
2020/12/22 10:52:12;;;;;;;2.17;1.98;;;;;;;-1.94;79.94;100214.64;1752414;82;28055;-61
2020/12/22 10:54:42;;;;;;;2.47;2.25;;;;;;;-1.93;79.93;100214.73;1747813;82;21073;-62
2020/12/22 10:57:11;;;;;;;3.17;2.50;;;;;;;-1.93;79.81;100206.08;1752314;82;21073;-61
2020/12/22 10:59:39;;;;;;;3.77;2.50;;;;;;;-1.94;79.83;100204.30;1727608;81;20942;-62
2020/12/22 11:02:09;;;;;;;4.17;2.75;;;;;;;-1.96;79.98;100193.86;1733580;82;21384;-61
2020/12/22 11:04:38;;;;;;;3.08;2.20;;;;;;;-1.99;80.02;100198.85;1803715;79;20938;-61
2020/12/22 11:07:11;;;;;;;2.45;2.17;;;;;;;-1.96;80.10;100183.92;1705808;82;21561;-61
2020/12/22 11:09:37;;;;;;;3.08;2.50;;;;;;;-1.94;80.03;100188.38;1803431;79;20986;-62
2020/12/22 11:12:05;;;;;;;2.92;2.50;;;;;;;-1.98;79.99;100186.41;1735135;82;21103;-62
2020/12/22 11:14:35;;;;;;;4.50;2.77;;;;;;;-2.05;80.06;100186.84;1735107;82;21379;-62
2020/12/22 11:17:03;;;;;;;2.77;2.55;;;;;;;-2.03;79.86;100180.08;1752316;82;21509;-62
2020/12/22 11:19:31;;;;;;;3.12;2.55;;;;;;;-2.01;79.93;100182.36;1735094;81;21092;-61
2020/12/22 11:22:00;;;;;;;4.37;2.37;;;;;;;-1.98;80.05;100168.72;1733390;82;21087;-61
2020/12/22 11:24:28;;;;;;;2.83;2.33;;;;;;;-1.96;80.10;100161.55;1735126;82;21074;-62
2020/12/22 11:26:56;;;;;;;3.35;2.35;;;;;;;-1.92;80.05;100158.34;1750689;82;21477;-61
2020/12/22 11:29:24;;;;;;;6.65;2.90;;;;;;;-1.92;80.19;100163.51;1751444;82;20982;-62
2020/12/22 11:31:53;;;;;;;3.42;2.72;;;;;;;-1.91;80.13;100143.31;1735108;82;21065;-62
2020/12/22 11:34:23;;;;;;;4.03;2.90;;;;;;;-1.86;80.13;100146.20;1733525;82;20900;-61